sensor_id;sensor_type;location;lat;lon;timestamp;temperature;humidity
37356;DHT22;48747;50.250;18.848;2023-03-14T00:00:15;9.30;99.90
37356;DHT22;48747;50.250;18.848;2023-03-14T00:02:18;9.30;99.90
37356;DHT22;48747;50.250;18.848;2023-03-14T00:04:21;9.30;99.90
37356;DHT22;48747;50.250;18.848;2023-03-14T00:06:24;9.40;99.90
37356;DHT22;48747;50.250;18.848;2023-03-14T00:08:27;9.40;99.50
37356;DHT22;48747;50.250;18.848;2023-03-14T00:10:30;9.40;99.50
37356;DHT22;48747;50.250;18.848;2023-03-14T00:12:33;9.50;99.30
37356;DHT22;48747;50.250;18.848;2023-03-14T00:14:36;9.50;98.90
37356;DHT22;48747;50.250;18.848;2023-03-14T00:16:39;9.60;98.80
37356;DHT22;48747;50.250;18.848;2023-03-14T00:18:43;9.60;98.60
37356;DHT22;48747;50.250;18.848;2023-03-14T00:20:46;9.60;98.80
37356;DHT22;48747;50.250;18.848;2023-03-14T00:22:49;9.70;98.20
37356;DHT22;48747;50.250;18.848;2023-03-14T00:24:52;9.80;97.80
37356;DHT22;48747;50.250;18.848;2023-03-14T00:26:55;9.90;97.00
37356;DHT22;48747;50.250;18.848;2023-03-14T00:28:58;9.90;96.70
37356;DHT22;48747;50.250;18.848;2023-03-14T00:31:10;10.00;96.40
37356;DHT22;48747;50.250;18.848;2023-03-14T00:33:09;10.10;96.00
37356;DHT22;48747;50.250;18.848;2023-03-14T00:35:12;10.10;95.60
37356;DHT22;48747;50.250;18.848;2023-03-14T00:37:15;10.20;95.30
37356;DHT22;48747;50.250;18.848;2023-03-14T00:39:18;10.20;95.40
37356;DHT22;48747;50.250;18.848;2023-03-14T00:41:23;10.20;95.30
37356;DHT22;48747;50.250;18.848;2023-03-14T00:43:26;10.20;95.10
37356;DHT22;48747;50.250;18.848;2023-03-14T00:45:29;10.20;95.10
37356;DHT22;48747;50.250;18.848;2023-03-14T00:47:32;10.30;94.40
37356;DHT22;48747;50.250;18.848;2023-03-14T00:49:36;10.40;94.20
37356;DHT22;48747;50.250;18.848;2023-03-14T00:51:39;10.40;94.00
37356;DHT22;48747;50.250;18.848;2023-03-14T00:53:43;10.40;94.00
37356;DHT22;48747;50.250;18.848;2023-03-14T00:55:48;10.30;93.90
37356;DHT22;48747;50.250;18.848;2023-03-14T00:57:51;10.30;94.00
37356;DHT22;48747;50.250;18.848;2023-03-14T00:59:56;10.30;94.10
37356;DHT22;48747;50.250;18.848;2023-03-14T01:01:59;10.30;93.90
37356;DHT22;48747;50.250;18.848;2023-03-14T01:04:04;10.20;94.20
37356;DHT22;48747;50.250;18.848;2023-03-14T01:06:09;10.10;94.40
37356;DHT22;48747;50.250;18.848;2023-03-14T01:08:13;10.10;94.80
37356;DHT22;48747;50.250;18.848;2023-03-14T01:10:16;10.00;95.00
37356;DHT22;48747;50.250;18.848;2023-03-14T01:12:19;10.10;94.90
37356;DHT22;48747;50.250;18.848;2023-03-14T01:14:22;10.10;95.00
37356;DHT22;48747;50.250;18.848;2023-03-14T01:16:28;10.00;95.00
37356;DHT22;48747;50.250;18.848;2023-03-14T01:18:32;10.00;95.10
37356;DHT22;48747;50.250;18.848;2023-03-14T01:20:37;10.00;94.90
37356;DHT22;48747;50.250;18.848;2023-03-14T01:22:41;10.00;94.60
37356;DHT22;48747;50.250;18.848;2023-03-14T01:24:44;10.10;94.50
37356;DHT22;48747;50.250;18.848;2023-03-14T01:26:47;10.10;94.40
37356;DHT22;48747;50.250;18.848;2023-03-14T01:28:52;10.10;94.40
37356;DHT22;48747;50.250;18.848;2023-03-14T01:30:55;10.10;94.20
37356;DHT22;48747;50.250;18.848;2023-03-14T01:32:58;10.20;93.90
37356;DHT22;48747;50.250;18.848;2023-03-14T01:35:01;10.20;93.50
37356;DHT22;48747;50.250;18.848;2023-03-14T01:37:04;10.20;93.40
37356;DHT22;48747;50.250;18.848;2023-03-14T01:39:09;10.20;93.40
37356;DHT22;48747;50.250;18.848;2023-03-14T01:41:14;10.20;93.30
37356;DHT22;48747;50.250;18.848;2023-03-14T01:43:19;10.20;93.30
37356;DHT22;48747;50.250;18.848;2023-03-14T01:48:01;10.20;92.80
37356;DHT22;48747;50.250;18.848;2023-03-14T01:50:06;10.20;92.80
37356;DHT22;48747;50.250;18.848;2023-03-14T01:52:27;10.20;92.80
37356;DHT22;48747;50.250;18.848;2023-03-14T01:54:37;10.10;92.90
37356;DHT22;48747;50.250;18.848;2023-03-14T01:56:44;10.00;93.40
37356;DHT22;48747;50.250;18.848;2023-03-14T01:58:49;9.90;93.60
37356;DHT22;48747;50.250;18.848;2023-03-14T02:00:55;9.80;94.10
37356;DHT22;48747;50.250;18.848;2023-03-14T02:03:09;9.70;94.50
37356;DHT22;48747;50.250;18.848;2023-03-14T02:05:16;9.60;95.00
37356;DHT22;48747;50.250;18.848;2023-03-14T02:07:32;9.60;95.30
37356;DHT22;48747;50.250;18.848;2023-03-14T02:09:31;9.60;95.70
37356;DHT22;48747;50.250;18.848;2023-03-14T02:11:34;9.50;96.20
37356;DHT22;48747;50.250;18.848;2023-03-14T02:13:37;9.50;96.60
37356;DHT22;48747;50.250;18.848;2023-03-14T02:15:41;9.50;96.70
37356;DHT22;48747;50.250;18.848;2023-03-14T02:17:45;9.40;97.00
37356;DHT22;48747;50.250;18.848;2023-03-14T02:20:03;9.40;97.30
37356;DHT22;48747;50.250;18.848;2023-03-14T02:22:10;9.30;97.50
37356;DHT22;48747;50.250;18.848;2023-03-14T02:24:33;9.30;97.70
37356;DHT22;48747;50.250;18.848;2023-03-14T02:29:06;9.20;98.20
37356;DHT22;48747;50.250;18.848;2023-03-14T02:31:09;9.20;98.50
37356;DHT22;48747;50.250;18.848;2023-03-14T02:33:18;9.20;98.60
37356;DHT22;48747;50.250;18.848;2023-03-14T02:35:24;9.20;98.80
37356;DHT22;48747;50.250;18.848;2023-03-14T02:37:37;9.20;98.80
37356;DHT22;48747;50.250;18.848;2023-03-14T02:39:39;9.20;98.80
37356;DHT22;48747;50.250;18.848;2023-03-14T02:41:43;9.20;98.60
37356;DHT22;48747;50.250;18.848;2023-03-14T02:43:48;9.30;98.60
37356;DHT22;48747;50.250;18.848;2023-03-14T02:45:52;9.30;98.80
37356;DHT22;48747;50.250;18.848;2023-03-14T02:47:57;9.30;98.90
37356;DHT22;48747;50.250;18.848;2023-03-14T02:50:09;9.30;98.80
37356;DHT22;48747;50.250;18.848;2023-03-14T02:52:07;9.30;98.80
37356;DHT22;48747;50.250;18.848;2023-03-14T02:54:10;9.30;99.20
37356;DHT22;48747;50.250;18.848;2023-03-14T02:56:13;9.20;99.10
37356;DHT22;48747;50.250;18.848;2023-03-14T02:58:17;9.20;99.20
37356;DHT22;48747;50.250;18.848;2023-03-14T03:00:20;9.10;99.50
37356;DHT22;48747;50.250;18.848;2023-03-14T03:02:23;9.10;99.70
37356;DHT22;48747;50.250;18.848;2023-03-14T03:04:26;9.10;99.90
37356;DHT22;48747;50.250;18.848;2023-03-14T03:06:29;9.10;99.80
37356;DHT22;48747;50.250;18.848;2023-03-14T03:08:33;9.20;99.90
37356;DHT22;48747;50.250;18.848;2023-03-14T03:10:36;9.30;99.10
37356;DHT22;48747;50.250;18.848;2023-03-14T03:12:39;9.40;98.40
37356;DHT22;48747;50.250;18.848;2023-03-14T03:14:42;9.50;97.20
37356;DHT22;48747;50.250;18.848;2023-03-14T03:16:45;9.70;96.40
37356;DHT22;48747;50.250;18.848;2023-03-14T03:18:48;9.80;95.80
37356;DHT22;48747;50.250;18.848;2023-03-14T03:20:52;9.80;95.60
37356;DHT22;48747;50.250;18.848;2023-03-14T03:22:54;9.80;95.30
37356;DHT22;48747;50.250;18.848;2023-03-14T03:24:57;9.80;95.10
37356;DHT22;48747;50.250;18.848;2023-03-14T03:27:01;9.90;94.60
37356;DHT22;48747;50.250;18.848;2023-03-14T03:29:04;9.90;94.70
37356;DHT22;48747;50.250;18.848;2023-03-14T03:31:08;9.90;94.80
37356;DHT22;48747;50.250;18.848;2023-03-14T03:33:12;9.80;94.90
37356;DHT22;48747;50.250;18.848;2023-03-14T03:35:15;9.80;95.40
37356;DHT22;48747;50.250;18.848;2023-03-14T03:37:18;9.70;95.60
37356;DHT22;48747;50.250;18.848;2023-03-14T03:39:21;9.70;95.90
37356;DHT22;48747;50.250;18.848;2023-03-14T03:41:24;9.60;96.30
37356;DHT22;48747;50.250;18.848;2023-03-14T03:43:27;9.60;96.50
37356;DHT22;48747;50.250;18.848;2023-03-14T03:45:31;9.60;96.60
37356;DHT22;48747;50.250;18.848;2023-03-14T03:47:35;9.60;96.40
37356;DHT22;48747;50.250;18.848;2023-03-14T03:49:39;9.60;96.70
37356;DHT22;48747;50.250;18.848;2023-03-14T03:51:44;9.50;96.60
37356;DHT22;48747;50.250;18.848;2023-03-14T03:53:47;9.50;96.90
37356;DHT22;48747;50.250;18.848;2023-03-14T03:55:51;9.40;97.20
37356;DHT22;48747;50.250;18.848;2023-03-14T03:57:54;9.40;97.40
37356;DHT22;48747;50.250;18.848;2023-03-14T03:59:57;9.30;97.60
37356;DHT22;48747;50.250;18.848;2023-03-14T04:02:00;9.20;98.10
37356;DHT22;48747;50.250;18.848;2023-03-14T04:04:03;9.10;98.70
37356;DHT22;48747;50.250;18.848;2023-03-14T04:06:11;9.00;99.50
37356;DHT22;48747;50.250;18.848;2023-03-14T04:08:16;8.90;99.90
37356;DHT22;48747;50.250;18.848;2023-03-14T04:10:19;8.80;99.90
37356;DHT22;48747;50.250;18.848;2023-03-14T04:12:22;8.70;99.90
37356;DHT22;48747;50.250;18.848;2023-03-14T04:14:25;8.50;99.90
37356;DHT22;48747;50.250;18.848;2023-03-14T04:16:28;8.40;99.90
37356;DHT22;48747;50.250;18.848;2023-03-14T04:18:33;8.30;99.90
37356;DHT22;48747;50.250;18.848;2023-03-14T04:20:36;8.30;99.90
37356;DHT22;48747;50.250;18.848;2023-03-14T04:22:39;8.20;99.90
37356;DHT22;48747;50.250;18.848;2023-03-14T04:24:42;8.20;99.90
37356;DHT22;48747;50.250;18.848;2023-03-14T04:26:45;8.10;99.90
37356;DHT22;48747;50.250;18.848;2023-03-14T04:28:48;8.10;99.90
37356;DHT22;48747;50.250;18.848;2023-03-14T04:30:51;8.00;99.90
37356;DHT22;48747;50.250;18.848;2023-03-14T04:32:54;8.00;99.90
37356;DHT22;48747;50.250;18.848;2023-03-14T04:34:57;8.00;99.90
37356;DHT22;48747;50.250;18.848;2023-03-14T04:37:00;8.00;99.90
37356;DHT22;48747;50.250;18.848;2023-03-14T04:39:03;7.90;99.90
37356;DHT22;48747;50.250;18.848;2023-03-14T04:41:06;8.00;99.90
37356;DHT22;48747;50.250;18.848;2023-03-14T04:43:11;8.00;99.90
37356;DHT22;48747;50.250;18.848;2023-03-14T04:45:14;8.00;99.90
37356;DHT22;48747;50.250;18.848;2023-03-14T04:47:17;8.10;99.90
37356;DHT22;48747;50.250;18.848;2023-03-14T04:49:20;8.10;99.90
37356;DHT22;48747;50.250;18.848;2023-03-14T04:51:23;8.10;99.90
37356;DHT22;48747;50.250;18.848;2023-03-14T04:53:28;8.00;99.90
37356;DHT22;48747;50.250;18.848;2023-03-14T04:55:31;8.00;99.90
37356;DHT22;48747;50.250;18.848;2023-03-14T04:57:35;7.90;99.90
37356;DHT22;48747;50.250;18.848;2023-03-14T04:59:38;7.80;99.90
37356;DHT22;48747;50.250;18.848;2023-03-14T05:01:41;7.70;99.90
37356;DHT22;48747;50.250;18.848;2023-03-14T05:03:47;7.70;99.90
37356;DHT22;48747;50.250;18.848;2023-03-14T05:05:50;7.60;99.90
37356;DHT22;48747;50.250;18.848;2023-03-14T05:07:52;7.60;99.90
37356;DHT22;48747;50.250;18.848;2023-03-14T05:09:58;7.60;99.90
37356;DHT22;48747;50.250;18.848;2023-03-14T05:12:01;7.60;99.90
37356;DHT22;48747;50.250;18.848;2023-03-14T05:14:04;7.60;99.90
37356;DHT22;48747;50.250;18.848;2023-03-14T05:16:09;7.70;99.90
37356;DHT22;48747;50.250;18.848;2023-03-14T05:18:12;7.80;99.90
37356;DHT22;48747;50.250;18.848;2023-03-14T05:20:16;8.00;99.90
37356;DHT22;48747;50.250;18.848;2023-03-14T05:22:19;8.10;99.90
37356;DHT22;48747;50.250;18.848;2023-03-14T05:24:22;8.30;99.90
37356;DHT22;48747;50.250;18.848;2023-03-14T05:26:25;8.40;99.90
37356;DHT22;48747;50.250;18.848;2023-03-14T05:28:28;8.50;99.90
37356;DHT22;48747;50.250;18.848;2023-03-14T05:30:31;8.50;99.90
37356;DHT22;48747;50.250;18.848;2023-03-14T05:32:35;8.50;99.90
37356;DHT22;48747;50.250;18.848;2023-03-14T05:34:38;8.60;99.90
37356;DHT22;48747;50.250;18.848;2023-03-14T05:36:42;8.60;99.90
37356;DHT22;48747;50.250;18.848;2023-03-14T05:38:45;8.60;99.90
37356;DHT22;48747;50.250;18.848;2023-03-14T05:40:48;8.70;99.90
37356;DHT22;48747;50.250;18.848;2023-03-14T05:42:52;8.70;99.90
37356;DHT22;48747;50.250;18.848;2023-03-14T05:44:55;8.70;99.90
37356;DHT22;48747;50.250;18.848;2023-03-14T05:47:04;8.80;99.90
37356;DHT22;48747;50.250;18.848;2023-03-14T05:49:03;8.80;99.90
37356;DHT22;48747;50.250;18.848;2023-03-14T05:51:07;8.90;99.90
37356;DHT22;48747;50.250;18.848;2023-03-14T05:53:10;8.90;99.90
37356;DHT22;48747;50.250;18.848;2023-03-14T05:55:13;9.00;99.90
37356;DHT22;48747;50.250;18.848;2023-03-14T05:57:16;9.10;99.90
37356;DHT22;48747;50.250;18.848;2023-03-14T05:59:19;9.10;99.90
37356;DHT22;48747;50.250;18.848;2023-03-14T06:01:22;9.20;99.90
37356;DHT22;48747;50.250;18.848;2023-03-14T06:03:25;9.30;99.90
37356;DHT22;48747;50.250;18.848;2023-03-14T06:05:28;9.30;99.90
37356;DHT22;48747;50.250;18.848;2023-03-14T06:07:31;9.40;99.90
37356;DHT22;48747;50.250;18.848;2023-03-14T06:09:39;9.50;99.90
37356;DHT22;48747;50.250;18.848;2023-03-14T06:11:39;9.50;99.90
37356;DHT22;48747;50.250;18.848;2023-03-14T06:13:42;9.60;99.90
37356;DHT22;48747;50.250;18.848;2023-03-14T06:15:45;9.60;99.90
37356;DHT22;48747;50.250;18.848;2023-03-14T06:17:48;9.60;99.90
37356;DHT22;48747;50.250;18.848;2023-03-14T06:19:51;9.70;99.90
37356;DHT22;48747;50.250;18.848;2023-03-14T06:21:54;9.70;99.20
37356;DHT22;48747;50.250;18.848;2023-03-14T06:23:57;9.80;98.90
37356;DHT22;48747;50.250;18.848;2023-03-14T06:26:00;9.80;98.70
37356;DHT22;48747;50.250;18.848;2023-03-14T06:28:03;9.80;99.00
37356;DHT22;48747;50.250;18.848;2023-03-14T06:30:07;9.80;98.60
37356;DHT22;48747;50.250;18.848;2023-03-14T06:32:10;9.80;98.40
37356;DHT22;48747;50.250;18.848;2023-03-14T06:34:15;9.90;98.20
37356;DHT22;48747;50.250;18.848;2023-03-14T06:36:18;9.90;98.10
37356;DHT22;48747;50.250;18.848;2023-03-14T06:38:21;9.90;98.20
37356;DHT22;48747;50.250;18.848;2023-03-14T06:40:24;9.90;97.90
37356;DHT22;48747;50.250;18.848;2023-03-14T06:42:27;10.00;97.70
37356;DHT22;48747;50.250;18.848;2023-03-14T06:44:30;10.00;97.50
37356;DHT22;48747;50.250;18.848;2023-03-14T06:46:33;10.20;97.10
37356;DHT22;48747;50.250;18.848;2023-03-14T06:48:36;10.30;96.70
37356;DHT22;48747;50.250;18.848;2023-03-14T06:50:39;10.40;96.10
37356;DHT22;48747;50.250;18.848;2023-03-14T06:52:42;10.50;95.40
37356;DHT22;48747;50.250;18.848;2023-03-14T06:54:47;10.50;94.90
37356;DHT22;48747;50.250;18.848;2023-03-14T06:56:50;10.60;94.60
37356;DHT22;48747;50.250;18.848;2023-03-14T06:58:53;10.60;94.30
37356;DHT22;48747;50.250;18.848;2023-03-14T07:00:56;10.70;94.30
37356;DHT22;48747;50.250;18.848;2023-03-14T07:03:00;10.60;94.20
37356;DHT22;48747;50.250;18.848;2023-03-14T07:05:03;10.70;94.10
37356;DHT22;48747;50.250;18.848;2023-03-14T07:07:06;10.70;93.70
37356;DHT22;48747;50.250;18.848;2023-03-14T07:09:11;10.70;93.50
37356;DHT22;48747;50.250;18.848;2023-03-14T07:11:14;10.80;93.30
37356;DHT22;48747;50.250;18.848;2023-03-14T07:13:17;10.80;93.30
37356;DHT22;48747;50.250;18.848;2023-03-14T07:15:20;10.90;93.20
37356;DHT22;48747;50.250;18.848;2023-03-14T07:17:23;10.90;93.10
37356;DHT22;48747;50.250;18.848;2023-03-14T07:19:26;11.00;92.30
37356;DHT22;48747;50.250;18.848;2023-03-14T07:21:29;11.00;92.00
37356;DHT22;48747;50.250;18.848;2023-03-14T07:23:33;11.10;91.80
37356;DHT22;48747;50.250;18.848;2023-03-14T07:25:37;11.20;91.20
37356;DHT22;48747;50.250;18.848;2023-03-14T07:27:40;11.30;91.50
37356;DHT22;48747;50.250;18.848;2023-03-14T07:29:43;11.30;91.10
37356;DHT22;48747;50.250;18.848;2023-03-14T07:31:46;11.40;90.90
37356;DHT22;48747;50.250;18.848;2023-03-14T07:33:49;11.40;90.90
37356;DHT22;48747;50.250;18.848;2023-03-14T07:35:52;11.40;91.10
37356;DHT22;48747;50.250;18.848;2023-03-14T07:37:55;11.50;90.60
37356;DHT22;48747;50.250;18.848;2023-03-14T07:39:58;11.50;90.60
37356;DHT22;48747;50.250;18.848;2023-03-14T07:42:06;11.50;90.80
37356;DHT22;48747;50.250;18.848;2023-03-14T07:44:07;11.50;90.70
37356;DHT22;48747;50.250;18.848;2023-03-14T07:46:10;11.60;91.00
37356;DHT22;48747;50.250;18.848;2023-03-14T07:48:15;11.60;90.90
37356;DHT22;48747;50.250;18.848;2023-03-14T07:50:18;11.70;90.40
37356;DHT22;48747;50.250;18.848;2023-03-14T07:52:21;11.80;90.40
37356;DHT22;48747;50.250;18.848;2023-03-14T07:54:25;11.90;90.30
37356;DHT22;48747;50.250;18.848;2023-03-14T07:56:28;12.00;90.10
37356;DHT22;48747;50.250;18.848;2023-03-14T07:58:31;12.20;88.40
37356;DHT22;48747;50.250;18.848;2023-03-14T08:00:35;12.40;87.10
37356;DHT22;48747;50.250;18.848;2023-03-14T08:02:38;12.50;86.00
37356;DHT22;48747;50.250;18.848;2023-03-14T08:04:41;12.60;85.80
37356;DHT22;48747;50.250;18.848;2023-03-14T08:06:44;12.70;84.00
37356;DHT22;48747;50.250;18.848;2023-03-14T08:08:47;12.60;84.20
37356;DHT22;48747;50.250;18.848;2023-03-14T08:10:50;12.60;84.90
37356;DHT22;48747;50.250;18.848;2023-03-14T08:12:57;12.70;83.80
37356;DHT22;48747;50.250;18.848;2023-03-14T08:15:01;12.70;84.00
37356;DHT22;48747;50.250;18.848;2023-03-14T08:17:09;12.70;83.80
37356;DHT22;48747;50.250;18.848;2023-03-14T08:19:10;12.80;84.50
37356;DHT22;48747;50.250;18.848;2023-03-14T08:21:20;12.90;84.70
37356;DHT22;48747;50.250;18.848;2023-03-14T08:23:19;12.90;83.90
37356;DHT22;48747;50.250;18.848;2023-03-14T08:25:25;13.00;83.30
37356;DHT22;48747;50.250;18.848;2023-03-14T08:27:28;13.00;82.60
37356;DHT22;48747;50.250;18.848;2023-03-14T08:29:36;13.10;82.50
37356;DHT22;48747;50.250;18.848;2023-03-14T08:31:40;13.20;81.80
37356;DHT22;48747;50.250;18.848;2023-03-14T08:33:47;13.20;81.90
37356;DHT22;48747;50.250;18.848;2023-03-14T08:35:53;13.30;81.70
37356;DHT22;48747;50.250;18.848;2023-03-14T08:37:56;13.60;81.60
37356;DHT22;48747;50.250;18.848;2023-03-14T08:40:02;13.70;80.80
37356;DHT22;48747;50.250;18.848;2023-03-14T08:42:07;13.80;78.60
37356;DHT22;48747;50.250;18.848;2023-03-14T08:44:10;13.80;78.70
37356;DHT22;48747;50.250;18.848;2023-03-14T08:46:16;13.80;78.80
37356;DHT22;48747;50.250;18.848;2023-03-14T08:48:19;13.80;77.60
37356;DHT22;48747;50.250;18.848;2023-03-14T08:50:28;13.60;78.40
37356;DHT22;48747;50.250;18.848;2023-03-14T08:52:27;13.50;78.40
37356;DHT22;48747;50.250;18.848;2023-03-14T08:54:30;13.40;79.40
37356;DHT22;48747;50.250;18.848;2023-03-14T08:56:33;13.30;80.00
37356;DHT22;48747;50.250;18.848;2023-03-14T08:58:38;13.20;80.30
37356;DHT22;48747;50.250;18.848;2023-03-14T09:00:43;13.10;81.00
37356;DHT22;48747;50.250;18.848;2023-03-14T09:02:46;13.10;81.70
37356;DHT22;48747;50.250;18.848;2023-03-14T09:04:54;13.00;82.50
37356;DHT22;48747;50.250;18.848;2023-03-14T09:06:55;12.90;81.90
37356;DHT22;48747;50.250;18.848;2023-03-14T09:08:59;12.90;83.70
37356;DHT22;48747;50.250;18.848;2023-03-14T09:11:03;12.90;83.20
37356;DHT22;48747;50.250;18.848;2023-03-14T09:13:07;12.90;83.40
37356;DHT22;48747;50.250;18.848;2023-03-14T09:15:12;12.90;83.80
37356;DHT22;48747;50.250;18.848;2023-03-14T09:17:15;12.90;83.60
37356;DHT22;48747;50.250;18.848;2023-03-14T09:19:29;12.90;84.10
37356;DHT22;48747;50.250;18.848;2023-03-14T09:21:27;12.80;84.10
37356;DHT22;48747;50.250;18.848;2023-03-14T09:23:31;12.80;83.80
37356;DHT22;48747;50.250;18.848;2023-03-14T09:25:34;12.80;84.00
37356;DHT22;48747;50.250;18.848;2023-03-14T09:27:39;12.80;84.30
37356;DHT22;48747;50.250;18.848;2023-03-14T09:29:42;12.80;84.30
37356;DHT22;48747;50.250;18.848;2023-03-14T09:31:46;12.90;84.20
37356;DHT22;48747;50.250;18.848;2023-03-14T09:33:50;12.90;83.80
37356;DHT22;48747;50.250;18.848;2023-03-14T09:35:53;13.00;83.00
37356;DHT22;48747;50.250;18.848;2023-03-14T09:37:59;13.10;81.70
37356;DHT22;48747;50.250;18.848;2023-03-14T09:40:03;13.20;81.70
37356;DHT22;48747;50.250;18.848;2023-03-14T09:42:11;13.30;81.80
37356;DHT22;48747;50.250;18.848;2023-03-14T09:44:33;13.50;80.60
37356;DHT22;48747;50.250;18.848;2023-03-14T09:46:38;13.60;80.80
37356;DHT22;48747;50.250;18.848;2023-03-14T09:48:42;13.70;81.10
37356;DHT22;48747;50.250;18.848;2023-03-14T09:50:51;13.80;79.80
37356;DHT22;48747;50.250;18.848;2023-03-14T09:52:56;13.90;79.70
37356;DHT22;48747;50.250;18.848;2023-03-14T09:55:06;14.00;79.40
37356;DHT22;48747;50.250;18.848;2023-03-14T09:57:15;14.00;78.90
37356;DHT22;48747;50.250;18.848;2023-03-14T09:59:20;14.10;79.50
37356;DHT22;48747;50.250;18.848;2023-03-14T10:01:29;14.10;78.80
37356;DHT22;48747;50.250;18.848;2023-03-14T10:03:33;14.10;79.40
37356;DHT22;48747;50.250;18.848;2023-03-14T10:05:37;14.10;79.60
37356;DHT22;48747;50.250;18.848;2023-03-14T10:07:45;14.00;79.50
37356;DHT22;48747;50.250;18.848;2023-03-14T10:09:46;13.90;79.60
37356;DHT22;48747;50.250;18.848;2023-03-14T10:11:51;13.80;80.50
37356;DHT22;48747;50.250;18.848;2023-03-14T10:14:09;13.80;80.60
37356;DHT22;48747;50.250;18.848;2023-03-14T10:16:14;13.70;81.00
37356;DHT22;48747;50.250;18.848;2023-03-14T10:18:17;13.60;81.60
37356;DHT22;48747;50.250;18.848;2023-03-14T10:20:40;13.40;82.50
37356;DHT22;48747;50.250;18.848;2023-03-14T10:22:44;13.20;84.20
37356;DHT22;48747;50.250;18.848;2023-03-14T10:24:53;13.00;85.50
37356;DHT22;48747;50.250;18.848;2023-03-14T10:27:18;12.90;86.40
37356;DHT22;48747;50.250;18.848;2023-03-14T10:29:19;12.70;87.60
37356;DHT22;48747;50.250;18.848;2023-03-14T10:31:18;12.60;88.00
37356;DHT22;48747;50.250;18.848;2023-03-14T10:33:25;12.60;88.80
37356;DHT22;48747;50.250;18.848;2023-03-14T10:35:30;12.50;90.10
37356;DHT22;48747;50.250;18.848;2023-03-14T10:37:35;12.40;90.20
37356;DHT22;48747;50.250;18.848;2023-03-14T10:39:49;12.40;90.50
37356;DHT22;48747;50.250;18.848;2023-03-14T10:42:05;12.40;90.40
37356;DHT22;48747;50.250;18.848;2023-03-14T10:44:14;12.40;90.20
37356;DHT22;48747;50.250;18.848;2023-03-14T10:46:18;12.40;90.40
37356;DHT22;48747;50.250;18.848;2023-03-14T10:50:29;12.40;90.60
37356;DHT22;48747;50.250;18.848;2023-03-14T10:52:33;12.50;91.10
37356;DHT22;48747;50.250;18.848;2023-03-14T10:54:37;12.40;90.50
37356;DHT22;48747;50.250;18.848;2023-03-14T10:56:41;12.40;90.60
37356;DHT22;48747;50.250;18.848;2023-03-14T10:58:56;12.40;90.90
37356;DHT22;48747;50.250;18.848;2023-03-14T11:01:11;12.40;90.80
37356;DHT22;48747;50.250;18.848;2023-03-14T11:03:13;12.40;90.90
37356;DHT22;48747;50.250;18.848;2023-03-14T11:07:38;12.20;92.40
37356;DHT22;48747;50.250;18.848;2023-03-14T11:09:43;12.20;93.00
37356;DHT22;48747;50.250;18.848;2023-03-14T11:11:47;12.10;93.60
37356;DHT22;48747;50.250;18.848;2023-03-14T11:14:04;12.10;94.30
37356;DHT22;48747;50.250;18.848;2023-03-14T11:16:18;12.10;94.40
37356;DHT22;48747;50.250;18.848;2023-03-14T11:20:55;12.00;96.30
37356;DHT22;48747;50.250;18.848;2023-03-14T11:23:27;12.00;97.50
37356;DHT22;48747;50.250;18.848;2023-03-14T11:26:01;12.00;98.70
37356;DHT22;48747;50.250;18.848;2023-03-14T11:39:02;11.70;99.90
37356;DHT22;48747;50.250;18.848;2023-03-14T11:41:24;11.70;99.90
37356;DHT22;48747;50.250;18.848;2023-03-14T11:43:40;11.70;99.90
37356;DHT22;48747;50.250;18.848;2023-03-14T11:45:45;11.70;99.90
37356;DHT22;48747;50.250;18.848;2023-03-14T11:50:25;11.70;99.90
37356;DHT22;48747;50.250;18.848;2023-03-14T11:52:58;11.60;99.90
37356;DHT22;48747;50.250;18.848;2023-03-14T11:56:59;11.60;99.90
37356;DHT22;48747;50.250;18.848;2023-03-14T11:59:12;11.60;99.90
37356;DHT22;48747;50.250;18.848;2023-03-14T12:01:15;11.50;99.90
37356;DHT22;48747;50.250;18.848;2023-03-14T12:03:31;11.50;99.90
37356;DHT22;48747;50.250;18.848;2023-03-14T12:05:44;11.50;99.90
37356;DHT22;48747;50.250;18.848;2023-03-14T12:10:13;11.50;99.90
37356;DHT22;48747;50.250;18.848;2023-03-14T12:12:21;11.50;99.90
37356;DHT22;48747;50.250;18.848;2023-03-14T12:14:37;11.50;99.90
37356;DHT22;48747;50.250;18.848;2023-03-14T12:16:45;11.50;99.90
37356;DHT22;48747;50.250;18.848;2023-03-14T12:18:49;11.50;99.90
37356;DHT22;48747;50.250;18.848;2023-03-14T12:21:04;11.40;99.90
37356;DHT22;48747;50.250;18.848;2023-03-14T12:23:10;11.50;99.90
37356;DHT22;48747;50.250;18.848;2023-03-14T12:25:17;11.40;99.90
37356;DHT22;48747;50.250;18.848;2023-03-14T12:27:45;11.40;99.90
37356;DHT22;48747;50.250;18.848;2023-03-14T12:30:00;11.40;99.90
37356;DHT22;48747;50.250;18.848;2023-03-14T12:32:23;11.30;99.90
37356;DHT22;48747;50.250;18.848;2023-03-14T12:34:32;11.40;99.90
37356;DHT22;48747;50.250;18.848;2023-03-14T12:36:54;11.40;99.90
37356;DHT22;48747;50.250;18.848;2023-03-14T12:41:45;11.50;99.90
37356;DHT22;48747;50.250;18.848;2023-03-14T12:43:49;11.60;99.90
37356;DHT22;48747;50.250;18.848;2023-03-14T12:48:24;11.70;99.90
37356;DHT22;48747;50.250;18.848;2023-03-14T12:50:53;11.70;99.90
37356;DHT22;48747;50.250;18.848;2023-03-14T13:00:18;11.90;99.90
37356;DHT22;48747;50.250;18.848;2023-03-14T13:02:24;11.80;99.90
37356;DHT22;48747;50.250;18.848;2023-03-14T13:04:31;11.80;99.90
37356;DHT22;48747;50.250;18.848;2023-03-14T13:06:53;11.70;99.90
37356;DHT22;48747;50.250;18.848;2023-03-14T13:08:58;11.60;99.90
37356;DHT22;48747;50.250;18.848;2023-03-14T13:11:06;11.60;99.90
37356;DHT22;48747;50.250;18.848;2023-03-14T13:13:16;11.50;99.90
37356;DHT22;48747;50.250;18.848;2023-03-14T13:15:26;11.50;99.90
37356;DHT22;48747;50.250;18.848;2023-03-14T13:17:33;11.50;99.90
37356;DHT22;48747;50.250;18.848;2023-03-14T13:19:36;11.40;99.90
37356;DHT22;48747;50.250;18.848;2023-03-14T13:21:41;11.40;99.90
37356;DHT22;48747;50.250;18.848;2023-03-14T13:24:01;11.30;99.90
37356;DHT22;48747;50.250;18.848;2023-03-14T13:26:13;11.30;99.90
37356;DHT22;48747;50.250;18.848;2023-03-14T13:28:17;11.30;99.90
37356;DHT22;48747;50.250;18.848;2023-03-14T13:30:23;11.20;99.90
37356;DHT22;48747;50.250;18.848;2023-03-14T13:32:28;11.20;99.90
37356;DHT22;48747;50.250;18.848;2023-03-14T13:34:33;11.20;99.90
37356;DHT22;48747;50.250;18.848;2023-03-14T13:36:37;11.30;99.90
37356;DHT22;48747;50.250;18.848;2023-03-14T13:38:40;11.30;99.90
37356;DHT22;48747;50.250;18.848;2023-03-14T13:40:45;11.20;99.90
37356;DHT22;48747;50.250;18.848;2023-03-14T13:42:48;11.20;99.90
37356;DHT22;48747;50.250;18.848;2023-03-14T13:44:52;11.20;99.90
37356;DHT22;48747;50.250;18.848;2023-03-14T13:46:58;11.20;99.90